Time;durP1;ratioP1;P1;durP2;ratioP2;P2;SDS_P1;SDS_P2;PMS_P1;PMS_P2;Temp;Humidity;BMP_temperature;BMP_pressure;BME280_temperature;BME280_humidity;BME280_pressure;Samples;Min_cycle;Max_cycle;Signal;HPM_P1;HPM_P2
2022/12/23 00:02:08;;;;;;;32.23;15.00;;;4.10;99.90;;;;;;4428023;28;657928;-71
2022/12/23 00:04:57;;;;;;;29.47;13.60;;;4.10;99.90;;;;;;4345612;28;657788;-71
2022/12/23 00:07:44;;;;;;;33.70;14.40;;;4.10;99.90;;;;;;4371709;28;657884;-71
2022/12/23 00:10:32;;;;;;;31.77;14.50;;;4.10;99.90;;;;;;4422136;28;657472;-71
2022/12/23 00:16:23;;;;;;;27.07;13.30;;;4.10;99.90;;;;;;4433711;28;657231;-71
2022/12/23 00:19:11;;;;;;;30.57;14.03;;;4.10;99.90;;;;;;4430248;28;657952;-69
2022/12/23 00:21:59;;;;;;;24.80;11.63;;;4.10;99.90;;;;;;4451469;28;657778;-72
2022/12/23 00:24:46;;;;;;;25.37;10.13;;;4.10;99.90;;;;;;4420836;28;658303;-73
2022/12/23 00:27:34;;;;;;;27.57;12.30;;;4.10;99.90;;;;;;4449084;28;657121;-71
2022/12/23 00:30:21;;;;;;;24.10;10.93;;;4.10;99.90;;;;;;4428241;28;657943;-70
2022/12/23 00:33:08;;;;;;;22.10;9.60;;;4.10;99.90;;;;;;4452049;28;658671;-70
2022/12/23 00:35:55;;;;;;;21.47;10.53;;;4.10;99.90;;;;;;4431720;28;656702;-69
2022/12/23 00:45:14;;;;;;;26.17;12.30;;;4.10;99.90;;;;;;4429668;28;657706;-70
2022/12/23 00:51:06;;;;;;;25.17;11.43;;;4.00;99.90;;;;;;4409415;28;657720;-69
2022/12/23 00:53:54;;;;;;;27.10;12.50;;;4.00;99.90;;;;;;4456489;28;658072;-71
2022/12/23 00:56:41;;;;;;;20.80;9.80;;;4.00;99.90;;;;;;4350552;28;657779;-69
2022/12/23 00:59:29;;;;;;;28.97;13.33;;;3.90;99.90;;;;;;4396466;28;657070;-70
2022/12/23 01:08:15;;;;;;;30.00;12.13;;;3.90;99.90;;;;;;4895355;27;135464;-71
2022/12/23 01:11:02;;;;;;;29.17;12.83;;;3.80;99.90;;;;;;4379262;28;652266;-72
2022/12/23 01:13:50;;;;;;;35.93;15.00;;;3.90;99.90;;;;;;4400048;28;651723;-72
2022/12/23 01:16:37;;;;;;;37.40;15.30;;;3.80;99.90;;;;;;4379197;28;652381;-72
2022/12/23 01:19:24;;;;;;;58.47;17.20;;;3.80;99.90;;;;;;4397409;28;651168;-72
2022/12/23 01:22:12;;;;;;;153.30;19.63;;;3.80;99.90;;;;;;4379040;28;651313;-72
2022/12/23 01:25:00;;;;;;;123.17;14.63;;;3.70;99.90;;;;;;4396233;28;654007;-72
2022/12/23 01:27:47;;;;;;;208.57;19.37;;;3.70;99.90;;;;;;4384276;28;655421;-72
2022/12/23 01:30:35;;;;;;;235.20;21.47;;;3.80;99.90;;;;;;4401294;28;653855;-71
2022/12/23 01:33:23;;;;;;;289.23;21.67;;;3.80;99.90;;;;;;4398397;28;654013;-71
2022/12/23 01:36:10;;;;;;;274.80;21.93;;;3.80;99.90;;;;;;4407268;28;654318;-71
2022/12/23 01:38:57;;;;;;;275.83;20.40;;;3.80;99.90;;;;;;4420613;28;655406;-72
2022/12/23 01:44:54;;;;;;;310.63;22.60;;;3.80;99.90;;;;;;4396692;28;654016;-72
2022/12/23 01:47:43;;;;;;;387.70;25.53;;;3.70;99.90;;;;;;4369204;28;654662;-72
2022/12/23 01:50:31;;;;;;;321.73;24.63;;;3.70;99.90;;;;;;4373097;28;654316;-71
2022/12/23 01:53:19;;;;;;;355.80;25.93;;;3.70;99.90;;;;;;4391381;28;654826;-72
2022/12/23 01:56:08;;;;;;;151.00;19.63;;;3.70;99.90;;;;;;4385301;28;655216;-71
2022/12/23 01:58:58;;;;;;;175.20;20.40;;;3.70;99.90;;;;;;4386708;28;654560;-71
2022/12/23 02:04:50;;;;;;;59.83;18.13;;;3.70;99.90;;;;;;4370337;28;653870;-72
2022/12/23 02:10:53;;;;;;;49.57;17.07;;;3.80;99.90;;;;;;4361113;28;653676;-72
2022/12/23 02:16:15;;;;;;;65.83;17.93;;;3.80;99.90;;;;;;4364835;28;653369;-72
2022/12/23 02:16:54;;;;;;;45.97;17.03;;;3.80;99.90;;;;;;4366019;28;653676;-72
2022/12/23 02:20:06;;;;;;;61.03;17.53;;;3.80;99.90;;;;;;4376411;28;653396;-72
2022/12/23 02:23:04;;;;;;;48.10;16.50;;;3.80;99.90;;;;;;4372624;28;653611;-72
2022/12/23 02:26:05;;;;;;;45.83;18.43;;;3.80;99.90;;;;;;4342802;28;653399;-72
2022/12/23 02:29:19;;;;;;;31.10;13.60;;;3.90;99.90;;;;;;4348145;28;653846;-71
2022/12/23 02:32:09;;;;;;;44.30;17.50;;;3.80;99.90;;;;;;4345873;28;653971;-71
2022/12/23 02:35:00;;;;;;;44.37;18.13;;;3.80;99.90;;;;;;4371314;28;653347;-71
2022/12/23 02:37:50;;;;;;;41.23;15.00;;;3.80;99.90;;;;;;4371302;28;654681;-72
2022/12/23 02:40:39;;;;;;;45.37;16.43;;;3.80;99.90;;;;;;4374487;28;653589;-71
2022/12/23 02:43:29;;;;;;;36.60;15.13;;;3.90;99.90;;;;;;4364009;28;653713;-72
2022/12/23 02:46:20;;;;;;;28.50;12.50;;;3.90;99.90;;;;;;4375424;28;653701;-71
2022/12/23 02:49:10;;;;;;;26.48;13.27;;;3.90;99.90;;;;;;4375327;28;654254;-71
2022/12/23 02:51:58;;;;;;;29.90;14.03;;;3.90;99.90;;;;;;4364237;28;653575;-72
2022/12/23 02:54:48;;;;;;;26.53;12.40;;;3.90;99.90;;;;;;4375458;28;653776;-71
2022/12/23 02:57:37;;;;;;;26.67;12.77;;;4.00;99.90;;;;;;4371457;28;653819;-72
2022/12/23 03:00:24;;;;;;;25.10;12.47;;;4.00;99.90;;;;;;4389038;28;653214;-72
2022/12/23 03:03:11;;;;;;;25.83;13.20;;;3.90;99.90;;;;;;4371785;28;653664;-72
2022/12/23 03:06:01;;;;;;;25.40;12.33;;;3.90;99.90;;;;;;4393937;28;653414;-72
2022/12/23 03:08:48;;;;;;;26.63;12.37;;;4.00;99.90;;;;;;4368028;28;653422;-71
2022/12/23 03:11:42;;;;;;;28.90;13.93;;;4.00;99.90;;;;;;4369365;28;653196;-71
2022/12/23 03:14:50;;;;;;;23.63;12.13;;;3.90;99.90;;;;;;4389963;28;653336;-72
2022/12/23 03:17:45;;;;;;;24.47;12.97;;;3.90;99.90;;;;;;4365393;28;653501;-72
2022/12/23 03:20:37;;;;;;;22.63;11.77;;;3.90;99.90;;;;;;4370140;28;654231;-72
2022/12/23 03:23:27;;;;;;;20.57;10.37;;;3.90;99.90;;;;;;4369732;28;653566;-72
2022/12/23 03:26:19;;;;;;;26.57;11.63;;;3.90;99.90;;;;;;4387589;28;653391;-71
2022/12/23 03:29:08;;;;;;;21.23;11.33;;;3.90;99.90;;;;;;4369844;28;653362;-72
2022/12/23 03:31:56;;;;;;;22.50;11.93;;;3.90;99.90;;;;;;4370910;28;654026;-71
2022/12/23 03:34:46;;;;;;;22.43;11.97;;;3.80;99.90;;;;;;4385096;28;654903;-72
2022/12/23 03:37:34;;;;;;;19.83;11.00;;;3.70;99.90;;;;;;4375167;28;654534;-72
2022/12/23 03:40:25;;;;;;;23.90;11.63;;;3.70;99.90;;;;;;4369975;28;653195;-71
2022/12/23 03:43:14;;;;;;;21.53;11.17;;;3.70;99.90;;;;;;4368664;28;654666;-71
2022/12/23 03:46:05;;;;;;;19.07;11.00;;;3.60;99.90;;;;;;4375702;28;654052;-72
2022/12/23 03:48:53;;;;;;;19.80;11.07;;;3.60;99.90;;;;;;4371348;28;653528;-72
2022/12/23 03:51:44;;;;;;;19.90;10.97;;;3.60;99.90;;;;;;4372774;28;653621;-71
2022/12/23 03:54:32;;;;;;;21.33;11.40;;;3.50;99.90;;;;;;4373511;28;653545;-72
2022/12/23 03:57:21;;;;;;;19.97;11.23;;;3.40;99.90;;;;;;4396236;28;654444;-71
2022/12/23 04:00:10;;;;;;;19.20;10.43;;;3.40;99.90;;;;;;4371840;28;655141;-71
2022/12/23 04:02:58;;;;;;;17.92;10.52;;;3.40;99.90;;;;;;4370207;28;655169;-69
2022/12/23 04:05:47;;;;;;;22.80;11.77;;;3.40;99.90;;;;;;4377537;28;654385;-69
2022/12/23 04:08:36;;;;;;;22.20;12.10;;;3.30;99.90;;;;;;4390344;28;656322;-71
2022/12/23 04:11:23;;;;;;;19.87;10.70;;;3.30;99.90;;;;;;4389965;28;654914;-72
2022/12/23 04:14:16;;;;;;;18.97;10.83;;;3.40;99.90;;;;;;4375963;28;654765;-72
2022/12/23 04:17:03;;;;;;;20.20;11.43;;;3.30;99.90;;;;;;4367089;28;655635;-71
2022/12/23 04:19:50;;;;;;;20.10;11.30;;;3.20;99.90;;;;;;4367361;28;654733;-72
2022/12/23 04:22:38;;;;;;;19.23;10.73;;;3.20;99.90;;;;;;4390690;28;655246;-72
2022/12/23 04:25:25;;;;;;;18.27;10.83;;;3.20;99.90;;;;;;4364341;28;657848;-72
2022/12/23 04:28:12;;;;;;;23.80;12.90;;;3.20;99.90;;;;;;4390491;28;655786;-72
2022/12/23 04:31:02;;;;;;;22.10;13.10;;;3.10;99.90;;;;;;4391073;28;654112;-72
2022/12/23 04:33:49;;;;;;;30.40;15.43;;;3.00;99.90;;;;;;4394156;28;654311;-71
2022/12/23 04:36:36;;;;;;;19.03;10.87;;;2.90;99.90;;;;;;4373525;28;655586;-72
2022/12/23 04:39:23;;;;;;;19.60;11.67;;;2.80;99.90;;;;;;4391425;28;654897;-72
2022/12/23 04:42:10;;;;;;;28.90;14.53;;;2.80;99.90;;;;;;4366384;28;654555;-72
2022/12/23 04:44:58;;;;;;;40.53;15.83;;;2.70;99.90;;;;;;4384202;28;654610;-72
2022/12/23 04:47:47;;;;;;;22.87;12.83;;;2.60;99.90;;;;;;4368881;28;654413;-72
2022/12/23 04:50:34;;;;;;;20.63;11.70;;;2.50;99.90;;;;;;4387573;28;654084;-72
2022/12/23 04:53:21;;;;;;;20.20;11.90;;;2.40;99.90;;;;;;4372920;28;654337;-72
2022/12/23 04:56:08;;;;;;;554.10;24.03;;;2.40;99.90;;;;;;4389004;28;655080;-72
2022/12/23 04:58:56;;;;;;;29.33;11.30;;;2.40;99.90;;;;;;4360403;28;656089;-72
2022/12/23 05:01:43;;;;;;;222.43;16.47;;;2.20;99.90;;;;;;4392535;28;654484;-72
2022/12/23 05:04:32;;;;;;;223.32;16.23;;;2.20;99.90;;;;;;4370322;28;655434;-72
2022/12/23 05:07:19;;;;;;;495.87;20.50;;;2.10;99.90;;;;;;4389749;28;655234;-72
2022/12/23 05:10:07;;;;;;;428.47;17.43;;;2.00;99.90;;;;;;4370748;28;655660;-72
2022/12/23 05:12:55;;;;;;;491.17;18.50;;;1.90;99.90;;;;;;4388398;28;655600;-72
2022/12/23 05:15:44;;;;;;;400.67;16.77;;;1.90;99.90;;;;;;4381200;28;655136;-72
2022/12/23 05:18:31;;;;;;;335.93;16.93;;;1.80;99.90;;;;;;4367827;28;655435;-72
2022/12/23 05:21:19;;;;;;;416.50;16.57;;;1.80;99.90;;;;;;4389606;28;656231;-72
2022/12/23 05:24:07;;;;;;;250.67;13.70;;;1.80;99.90;;;;;;4368954;28;655952;-72
2022/12/23 05:26:54;;;;;;;175.40;14.03;;;1.80;99.90;;;;;;4391619;28;655369;-72
2022/12/23 05:29:41;;;;;;;55.72;13.20;;;1.80;99.90;;;;;;4371598;28;655331;-72
2022/12/23 05:32:28;;;;;;;32.93;12.33;;;1.70;99.90;;;;;;4381276;28;654486;-72
2022/12/23 05:35:16;;;;;;;162.20;16.17;;;1.70;99.90;;;;;;4370347;28;654129;-72
2022/12/23 05:38:04;;;;;;;64.60;15.23;;;1.70;99.90;;;;;;4388699;28;655318;-72
2022/12/23 05:40:52;;;;;;;44.47;18.90;;;1.70;99.90;;;;;;4375407;28;654809;-72
2022/12/23 05:43:39;;;;;;;47.80;18.87;;;1.60;99.90;;;;;;4388612;28;654785;-72
2022/12/23 05:46:26;;;;;;;44.67;21.83;;;1.60;99.90;;;;;;4370107;28;654663;-72
2022/12/23 05:49:13;;;;;;;36.97;18.00;;;1.60;99.90;;;;;;4381780;28;655086;-72
2022/12/23 05:52:00;;;;;;;44.37;17.13;;;1.50;99.90;;;;;;4370444;28;655198;-72
2022/12/23 05:54:49;;;;;;;49.37;20.73;;;1.50;99.90;;;;;;4392701;28;656446;-72
2022/12/23 05:57:36;;;;;;;54.27;22.60;;;1.50;99.90;;;;;;4371803;28;657567;-72
2022/12/23 06:00:24;;;;;;;86.40;33.13;;;1.40;99.90;;;;;;4388196;28;655676;-72
2022/12/23 06:03:11;;;;;;;96.82;42.88;;;1.40;99.90;;;;;;4367401;28;655630;-72
2022/12/23 06:05:58;;;;;;;171.60;72.82;;;1.40;99.90;;;;;;4387428;28;656345;-72
2022/12/23 06:08:45;;;;;;;159.27;43.77;;;1.50;99.90;;;;;;4374189;28;656721;-72
2022/12/23 06:11:34;;;;;;;106.13;43.57;;;1.50;99.90;;;;;;4387412;28;657737;-72
2022/12/23 06:14:21;;;;;;;95.67;40.90;;;1.40;99.90;;;;;;4371718;28;656597;-71
2022/12/23 06:17:09;;;;;;;157.60;61.50;;;1.40;99.90;;;;;;4392376;28;656293;-72
2022/12/23 06:19:56;;;;;;;198.77;76.53;;;1.50;99.90;;;;;;4373157;28;656575;-72
2022/12/23 06:22:43;;;;;;;309.33;120.00;;;1.40;99.90;;;;;;4385891;28;657153;-72
2022/12/23 06:25:30;;;;;;;306.92;121.82;;;1.50;99.90;;;;;;4371667;28;658013;-73
2022/12/23 06:28:19;;;;;;;179.50;80.57;;;1.50;99.90;;;;;;4395995;28;658678;-72
2022/12/23 06:31:06;;;;;;;284.70;110.90;;;1.60;99.90;;;;;;4371477;28;656085;-72
2022/12/23 06:33:53;;;;;;;207.83;85.67;;;1.60;99.90;;;;;;4388163;28;657794;-72
2022/12/23 06:36:41;;;;;;;181.07;75.03;;;1.60;99.90;;;;;;4373972;28;657273;-72
2022/12/23 06:39:28;;;;;;;104.43;45.90;;;1.70;99.90;;;;;;4385798;28;656695;-72
2022/12/23 06:42:15;;;;;;;123.43;51.37;;;1.70;99.90;;;;;;4370294;28;656342;-72
2022/12/23 06:45:05;;;;;;;86.17;38.50;;;1.70;99.90;;;;;;4388307;28;657892;-72
2022/12/23 06:47:52;;;;;;;75.60;32.63;;;1.80;99.90;;;;;;4369605;28;656396;-72
2022/12/23 06:50:39;;;;;;;64.87;29.37;;;1.80;99.90;;;;;;4394013;28;655702;-72
2022/12/23 06:53:27;;;;;;;61.00;28.25;;;1.80;99.90;;;;;;4373513;28;655641;-72
2022/12/23 06:56:14;;;;;;;39.00;20.27;;;1.80;99.90;;;;;;4382910;28;656035;-72
2022/12/23 06:59:01;;;;;;;30.23;16.03;;;1.90;99.90;;;;;;4373213;28;655151;-72
2022/12/23 07:01:50;;;;;;;22.67;11.48;;;1.90;99.90;;;;;;4390467;28;656425;-72
2022/12/23 07:04:37;;;;;;;18.03;10.93;;;2.00;99.90;;;;;;4367588;28;656467;-71
2022/12/23 07:07:24;;;;;;;25.30;12.60;;;2.00;99.90;;;;;;4390660;28;655249;-71
2022/12/23 07:10:11;;;;;;;45.27;17.97;;;2.10;99.90;;;;;;4368118;28;656017;-71
2022/12/23 07:12:59;;;;;;;45.90;18.70;;;2.10;99.90;;;;;;4381717;28;656777;-72
2022/12/23 07:15:46;;;;;;;81.73;34.03;;;2.10;99.90;;;;;;4375566;28;655754;-70
2022/12/23 07:18:34;;;;;;;186.43;81.00;;;2.20;99.90;;;;;;4395686;28;656325;-71
2022/12/23 07:21:22;;;;;;;166.60;72.10;;;2.30;99.90;;;;;;4369600;28;657398;-70
2022/12/23 07:24:09;;;;;;;146.43;62.50;;;2.40;99.90;;;;;;4385279;28;656393;-71
2022/12/23 07:26:56;;;;;;;161.40;69.83;;;2.50;99.90;;;;;;4367225;28;656202;-71
2022/12/23 07:29:44;;;;;;;187.00;74.53;;;2.50;99.90;;;;;;4387991;28;657298;-71
2022/12/23 07:32:31;;;;;;;270.42;97.22;;;2.60;99.90;;;;;;4364927;28;656908;-71
2022/12/23 07:35:20;;;;;;;123.50;49.77;;;2.70;99.90;;;;;;4391710;28;656688;-71
2022/12/23 07:38:07;;;;;;;226.37;88.33;;;2.70;99.90;;;;;;4374719;28;657178;-71
2022/12/23 07:40:54;;;;;;;569.80;201.00;;;2.80;99.90;;;;;;4377677;28;656766;-71
2022/12/23 07:43:41;;;;;;;602.38;214.35;;;2.80;99.90;;;;;;4367223;28;658279;-72
2022/12/23 07:46:28;;;;;;;475.93;146.60;;;2.90;99.90;;;;;;4386933;28;657418;-71
2022/12/23 07:49:16;;;;;;;504.70;137.07;;;3.00;99.90;;;;;;4369393;28;657491;-71
2022/12/23 07:52:05;;;;;;;499.73;157.60;;;3.10;99.90;;;;;;4391184;28;657607;-71
2022/12/23 07:54:52;;;;;;;123.77;46.37;;;3.10;99.90;;;;;;4368880;28;658437;-71
2022/12/23 07:57:39;;;;;;;42.27;17.63;;;3.20;99.90;;;;;;4381098;28;656559;-72
2022/12/23 08:00:26;;;;;;;230.57;20.67;;;3.30;99.90;;;;;;4369612;28;656236;-71
2022/12/23 08:03:14;;;;;;;33.10;8.20;;;3.40;99.90;;;;;;4389147;28;656532;-71
2022/12/23 08:06:02;;;;;;;24.13;8.70;;;3.30;99.90;;;;;;4370086;28;654748;-71
2022/12/23 08:08:50;;;;;;;17.23;9.50;;;3.50;99.90;;;;;;4386361;28;654316;-71
2022/12/23 08:11:37;;;;;;;31.20;11.53;;;3.50;99.90;;;;;;4364598;28;655557;-71
2022/12/23 08:14:25;;;;;;;20.17;10.57;;;3.60;99.90;;;;;;4376441;28;655713;-72
2022/12/23 08:17:12;;;;;;;23.27;12.33;;;3.60;99.90;;;;;;4380447;28;656678;-70
2022/12/23 08:20:00;;;;;;;446.03;18.13;;;3.70;99.90;;;;;;4385062;28;655797;-72
2022/12/23 08:22:47;;;;;;;26.23;10.63;;;3.70;99.90;;;;;;4392847;28;657117;-71
2022/12/23 08:25:37;;;;;;;417.27;21.17;;;3.60;99.90;;;;;;4383990;28;655537;-72
2022/12/23 08:28:24;;;;;;;31.47;11.00;;;3.80;99.90;;;;;;4390872;28;656027;-71
2022/12/23 08:31:12;;;;;;;24.53;11.93;;;3.80;99.90;;;;;;4362049;28;655112;-70
2022/12/23 08:34:00;;;;;;;169.57;14.43;;;3.90;99.90;;;;;;4382976;28;654995;-68
2022/12/23 08:36:47;;;;;;;33.03;10.93;;;3.90;99.90;;;;;;4364449;28;656605;-69
2022/12/23 08:39:34;;;;;;;201.10;16.17;;;4.00;99.90;;;;;;4384896;28;655886;-69
2022/12/23 08:42:23;;;;;;;13.37;7.77;;;4.00;99.90;;;;;;4368973;28;656802;-70
2022/12/23 08:45:11;;;;;;;24.73;12.82;;;4.10;99.90;;;;;;4372754;28;654671;-70
2022/12/23 08:47:59;;;;;;;26.87;14.27;;;4.40;99.90;;;;;;4392482;28;656372;-68
2022/12/23 08:50:46;;;;;;;24.67;14.33;;;4.60;99.90;;;;;;4363658;28;655391;-69
2022/12/23 08:53:33;;;;;;;26.60;15.90;;;4.90;99.90;;;;;;4393526;28;656827;-69
2022/12/23 08:56:22;;;;;;;23.27;12.63;;;5.10;99.90;;;;;;4370317;28;655446;-70
2022/12/23 08:59:14;;;;;;;19.40;12.00;;;5.40;99.90;;;;;;4395617;28;655403;-69
2022/12/23 09:02:02;;;;;;;20.17;12.43;;;5.80;99.90;;;;;;4353614;28;655887;-70
2022/12/23 09:04:49;;;;;;;39.90;12.27;;;6.20;99.90;;;;;;4401646;28;655303;-70
2022/12/23 09:07:36;;;;;;;20.13;11.53;;;6.60;99.90;;;;;;4364889;28;655477;-70
2022/12/23 09:10:23;;;;;;;14.43;8.50;;;7.00;99.90;;;;;;4388220;28;656534;-71
2022/12/23 09:13:11;;;;;;;15.93;9.90;;;7.20;99.90;;;;;;4368359;28;654571;-71
2022/12/23 09:15:59;;;;;;;15.53;9.80;;;7.20;99.90;;;;;;4401141;28;654593;-71
2022/12/23 09:18:46;;;;;;;13.77;8.73;;;7.00;99.90;;;;;;4365981;28;654897;-69
2022/12/23 09:21:34;;;;;;;17.13;9.50;;;6.60;99.90;;;;;;4386093;28;654937;-69
2022/12/23 09:24:21;;;;;;;14.23;9.23;;;6.60;99.90;;;;;;4362395;28;654861;-70
2022/12/23 09:27:08;;;;;;;13.17;8.67;;;6.60;99.90;;;;;;4387409;28;654471;-70
2022/12/23 09:29:56;;;;;;;16.67;9.33;;;6.50;99.90;;;;;;4364241;28;654152;-70
2022/12/23 09:32:44;;;;;;;11.97;8.33;;;6.50;99.90;;;;;;4395035;28;655006;-69
2022/12/23 09:35:32;;;;;;;13.70;7.97;;;6.40;99.90;;;;;;4367230;28;654633;-69
2022/12/23 09:38:19;;;;;;;30.93;14.23;;;6.40;99.90;;;;;;4386287;28;654623;-69
2022/12/23 09:41:14;;;;;;;46.00;21.10;;;6.40;99.90;;;;;;4377015;28;655777;-70
2022/12/23 09:44:11;;;;;;;41.57;20.90;;;6.60;99.90;;;;;;4352885;28;655887;-70
2022/12/23 09:47:01;;;;;;;60.33;25.77;;;6.80;99.90;;;;;;4368750;28;655443;-70
2022/12/23 09:49:51;;;;;;;50.47;22.90;;;7.10;99.90;;;;;;4369707;28;655611;-70
2022/12/23 09:52:42;;;;;;;66.78;29.48;;;7.20;99.90;;;;;;4365459;28;657548;-70
2022/12/23 09:55:33;;;;;;;40.60;16.63;;;7.50;99.90;;;;;;4373048;28;655329;-70
2022/12/23 09:58:27;;;;;;;24.47;11.60;;;7.70;99.90;;;;;;4374887;28;656042;-70
2022/12/23 10:01:18;;;;;;;12.47;7.13;;;7.90;99.90;;;;;;4368728;28;656237;-70
2022/12/23 10:04:39;;;;;;;13.27;7.07;;;7.90;99.90;;;;;;4369980;28;655101;-70
2022/12/23 10:07:31;;;;;;;11.67;6.63;;;7.80;99.90;;;;;;4373123;28;654146;-71
2022/12/23 10:10:30;;;;;;;13.53;6.90;;;7.60;99.90;;;;;;4371775;28;654324;-70
2022/12/23 10:13:24;;;;;;;15.93;7.75;;;7.50;99.90;;;;;;4372214;28;654951;-70
2022/12/23 10:16:13;;;;;;;16.57;6.83;;;7.40;99.90;;;;;;4369475;28;654519;-71
2022/12/23 10:19:02;;;;;;;15.17;7.57;;;7.30;99.90;;;;;;4369557;28;655077;-70
2022/12/23 10:21:50;;;;;;;13.33;6.97;;;7.10;99.90;;;;;;4382580;28;654568;-70
2022/12/23 10:24:40;;;;;;;13.27;7.40;;;7.10;99.90;;;;;;4373095;28;655361;-70
2022/12/23 10:27:30;;;;;;;13.33;7.23;;;6.80;99.90;;;;;;4366243;28;655352;-70
2022/12/23 10:30:18;;;;;;;13.27;6.80;;;6.90;99.90;;;;;;4367407;28;655667;-70
2022/12/23 10:33:09;;;;;;;14.85;7.18;;;7.20;99.90;;;;;;4371842;28;655697;-70
2022/12/23 10:36:00;;;;;;;11.43;5.90;;;7.60;99.90;;;;;;4374962;28;654860;-70
2022/12/23 10:38:52;;;;;;;11.90;6.03;;;7.60;99.90;;;;;;4362404;28;655187;-70
2022/12/23 10:41:42;;;;;;;12.83;5.93;;;7.40;99.90;;;;;;4371663;28;654374;-70
2022/12/23 10:45:03;;;;;;;10.47;6.30;;;7.50;99.90;;;;;;4371788;28;654816;-70
2022/12/23 10:47:55;;;;;;;13.27;6.50;;;7.70;99.90;;;;;;4359306;28;655126;-70
2022/12/23 10:50:50;;;;;;;13.07;6.23;;;7.30;99.90;;;;;;4375655;28;656063;-70
2022/12/23 10:53:39;;;;;;;16.07;6.77;;;7.20;99.90;;;;;;4347102;28;654679;-70
2022/12/23 10:56:26;;;;;;;18.27;7.00;;;7.30;99.90;;;;;;4374133;28;655558;-70
2022/12/23 10:59:16;;;;;;;15.43;7.28;;;7.30;99.90;;;;;;4391283;28;655215;-70
2022/12/23 11:02:05;;;;;;;16.70;7.23;;;7.20;99.90;;;;;;4367357;28;654748;-70
2022/12/23 11:04:52;;;;;;;13.53;7.47;;;7.20;99.90;;;;;;4367911;28;654596;-71
2022/12/23 11:07:40;;;;;;;15.87;7.10;;;7.00;99.90;;;;;;4399856;28;654386;-71
2022/12/23 11:10:31;;;;;;;16.43;8.10;;;7.10;99.90;;;;;;4364133;28;655067;-72
2022/12/23 11:13:32;;;;;;;16.50;8.03;;;7.10;99.90;;;;;;4365977;28;654604;-73
2022/12/23 11:16:23;;;;;;;18.13;7.80;;;6.90;99.90;;;;;;4364137;28;655499;-73
2022/12/23 11:19:14;;;;;;;15.67;6.47;;;6.90;99.90;;;;;;4353326;28;654316;-72
2022/12/23 11:22:01;;;;;;;12.70;6.00;;;6.80;99.90;;;;;;4374966;28;654441;-73
2022/12/23 11:24:49;;;;;;;16.73;7.30;;;6.80;99.90;;;;;;4388327;28;654583;-73
2022/12/23 11:27:36;;;;;;;14.43;7.17;;;6.70;99.90;;;;;;4367715;28;654532;-73
2022/12/23 11:30:23;;;;;;;16.10;7.80;;;6.70;99.90;;;;;;4386464;28;655122;-74
2022/12/23 11:33:20;;;;;;;16.30;8.40;;;6.60;99.90;;;;;;4367002;28;654944;-73
2022/12/23 11:36:13;;;;;;;17.43;9.63;;;6.50;99.90;;;;;;4365095;28;655216;-74
2022/12/23 11:39:03;;;;;;;19.50;11.20;;;6.50;99.90;;;;;;4370373;28;654671;-73
2022/12/23 11:41:53;;;;;;;21.03;10.87;;;6.50;99.90;;;;;;4370446;28;655722;-73
2022/12/23 11:44:41;;;;;;;21.48;10.80;;;6.40;99.90;;;;;;4373571;28;655599;-74
2022/12/23 11:47:33;;;;;;;25.40;12.97;;;6.30;99.90;;;;;;4390312;28;656635;-70
2022/12/23 11:50:30;;;;;;;27.83;13.50;;;6.20;99.90;;;;;;4358294;28;655266;-71
2022/12/23 11:53:20;;;;;;;20.87;12.27;;;6.10;99.90;;;;;;4343776;28;656907;-71
2022/12/23 11:56:08;;;;;;;26.27;13.17;;;6.10;99.90;;;;;;4366688;28;656302;-70
2022/12/23 11:59:00;;;;;;;25.50;12.90;;;6.10;99.90;;;;;;4374453;28;655483;-72
2022/12/23 12:01:47;;;;;;;29.43;15.80;;;6.10;99.90;;;;;;4368028;28;656371;-70
2022/12/23 12:04:35;;;;;;;32.30;17.90;;;6.10;99.90;;;;;;4391684;28;655335;-70
2022/12/23 12:07:23;;;;;;;39.97;19.60;;;6.20;99.90;;;;;;4374933;28;656811;-70
2022/12/23 12:10:13;;;;;;;40.37;21.13;;;6.10;99.90;;;;;;4364526;28;655541;-70
2022/12/23 12:13:02;;;;;;;44.07;23.40;;;6.00;99.90;;;;;;4368021;28;655618;-70
2022/12/23 12:15:53;;;;;;;41.00;22.17;;;6.00;99.90;;;;;;4387346;28;655942;-70
2022/12/23 12:18:41;;;;;;;46.23;23.23;;;6.10;99.90;;;;;;4348491;28;655713;-71
2022/12/23 12:21:30;;;;;;;41.37;21.87;;;6.00;99.90;;;;;;4381249;28;657692;-71
2022/12/23 12:24:20;;;;;;;38.57;20.30;;;6.00;99.90;;;;;;4366218;28;655835;-71
2022/12/23 12:27:08;;;;;;;41.93;21.67;;;6.00;99.90;;;;;;4367546;28;656138;-70
2022/12/23 12:29:57;;;;;;;42.30;21.20;;;5.90;99.90;;;;;;4383337;28;656661;-71
2022/12/23 12:32:48;;;;;;;41.53;21.97;;;5.90;99.90;;;;;;4390711;28;654964;-70
2022/12/23 12:35:41;;;;;;;42.23;21.83;;;5.90;99.90;;;;;;4342171;28;655857;-70
2022/12/23 12:38:31;;;;;;;40.77;19.77;;;5.90;99.90;;;;;;4368886;28;655786;-70
2022/12/23 12:41:22;;;;;;;46.97;22.07;;;5.90;99.90;;;;;;4364126;28;656001;-70
2022/12/23 12:44:26;;;;;;;43.53;22.57;;;5.80;99.90;;;;;;4364303;28;656037;-70
2022/12/23 12:47:16;;;;;;;39.77;21.70;;;5.90;99.90;;;;;;4366639;28;656201;-70
2022/12/23 12:50:04;;;;;;;44.10;23.37;;;5.90;99.90;;;;;;4365020;28;655466;-70
2022/12/23 12:52:52;;;;;;;48.03;23.70;;;5.80;99.90;;;;;;4366194;28;656307;-70
2022/12/23 12:55:41;;;;;;;41.30;22.13;;;5.80;99.90;;;;;;4393489;28;655568;-70
2022/12/23 12:58:29;;;;;;;49.97;25.73;;;5.80;99.90;;;;;;4361474;28;655717;-69
2022/12/23 13:01:28;;;;;;;48.60;25.17;;;5.70;99.90;;;;;;4368729;28;656147;-69
2022/12/23 13:04:37;;;;;;;50.23;23.77;;;5.70;99.90;;;;;;4347070;28;656125;-70
2022/12/23 13:07:28;;;;;;;48.10;25.27;;;5.70;99.90;;;;;;4374884;28;655224;-69
2022/12/23 13:10:19;;;;;;;47.33;22.70;;;5.70;99.90;;;;;;4346335;28;655957;-69
2022/12/23 13:13:13;;;;;;;48.40;25.43;;;5.60;99.90;;;;;;4369045;28;655792;-70
2022/12/23 13:16:04;;;;;;;54.07;25.90;;;5.60;99.90;;;;;;4338670;28;655735;-69
2022/12/23 13:18:54;;;;;;;52.50;26.13;;;5.60;99.90;;;;;;4371902;28;656288;-69
2022/12/23 13:21:43;;;;;;;50.37;25.83;;;5.60;99.90;;;;;;4364833;28;655911;-69
2022/12/23 13:24:32;;;;;;;46.10;22.97;;;5.70;99.90;;;;;;4373679;28;656327;-69
2022/12/23 13:27:21;;;;;;;44.00;21.37;;;5.70;99.90;;;;;;4389632;28;656114;-70
2022/12/23 13:30:12;;;;;;;39.70;18.73;;;5.70;99.90;;;;;;4372679;28;656084;-69
2022/12/23 13:33:11;;;;;;;33.23;18.73;;;5.70;99.90;;;;;;4368025;28;655549;-69
2022/12/23 13:36:07;;;;;;;37.67;17.63;;;5.70;99.90;;;;;;4364313;28;656257;-69
2022/12/23 13:39:09;;;;;;;33.07;17.27;;;5.70;99.90;;;;;;4363663;28;655898;-70
2022/12/23 13:41:56;;;;;;;31.50;16.87;;;5.80;99.90;;;;;;4341522;28;655798;-69
2022/12/23 13:44:44;;;;;;;36.47;14.00;;;5.70;99.90;;;;;;4387146;28;655249;-70
2022/12/23 13:47:44;;;;;;;25.90;12.53;;;5.80;99.90;;;;;;4365641;28;655657;-69
2022/12/23 13:50:35;;;;;;;28.60;12.53;;;5.80;99.90;;;;;;4337275;28;656184;-72
2022/12/23 13:53:25;;;;;;;23.10;12.13;;;5.80;99.90;;;;;;4370909;28;656182;-72
2022/12/23 13:56:17;;;;;;;22.17;10.97;;;5.80;99.90;;;;;;4372097;28;655972;-71
2022/12/23 13:59:06;;;;;;;19.75;10.68;;;5.80;99.90;;;;;;4365654;28;655932;-72
2022/12/23 14:01:53;;;;;;;28.70;12.73;;;5.70;99.90;;;;;;4367133;28;656520;-72
2022/12/23 14:04:57;;;;;;;20.13;10.77;;;5.70;99.90;;;;;;4369621;28;656438;-72
2022/12/23 14:07:46;;;;;;;21.43;10.50;;;5.70;99.90;;;;;;4362352;28;655439;-72
2022/12/23 14:10:33;;;;;;;19.43;9.77;;;5.70;99.90;;;;;;4369870;28;656187;-71
2022/12/23 14:13:22;;;;;;;23.73;12.13;;;5.70;99.90;;;;;;4368968;28;654882;-72
2022/12/23 14:16:27;;;;;;;22.73;11.80;;;5.70;99.90;;;;;;4385365;28;660230;-72
2022/12/23 14:19:41;;;;;;;18.67;10.10;;;5.70;99.90;;;;;;4368175;28;655475;-71
2022/12/23 14:22:51;;;;;;;21.17;11.03;;;5.60;99.90;;;;;;4369404;28;655647;-71
2022/12/23 14:25:50;;;;;;;17.33;10.73;;;5.60;99.90;;;;;;4370827;28;655683;-72
2022/12/23 14:28:57;;;;;;;21.23;11.30;;;5.60;99.90;;;;;;4349615;28;656120;-71
2022/12/23 14:31:44;;;;;;;17.23;9.80;;;5.60;99.90;;;;;;4365142;28;655633;-72
2022/12/23 14:34:32;;;;;;;18.20;10.73;;;5.60;99.90;;;;;;4373981;28;654301;-72
2022/12/23 14:37:35;;;;;;;21.30;11.93;;;5.60;99.90;;;;;;4400446;28;655866;-72
2022/12/23 14:40:48;;;;;;;22.33;12.83;;;5.60;99.90;;;;;;4371762;28;655684;-73
2022/12/23 14:43:55;;;;;;;21.50;12.18;;;5.40;99.90;;;;;;4343881;28;655876;-72
2022/12/23 14:46:57;;;;;;;19.53;10.97;;;5.50;99.90;;;;;;4366802;28;656012;-72
2022/12/23 14:49:45;;;;;;;20.63;12.90;;;5.50;99.90;;;;;;4388311;28;655687;-74